Ingleside, Maryland
Current Conditions -  °F | °C
As of 12:58 AM on Wednesday 28 Jan 2015 (Local Time) from KDOV Reporting Station
Clear Clear  
Wind Chill:   Ceiling: Unl
Heat Index: 23°   Visibility: 10mi
Dew Point: 10°   Wind: 18mph
Humidity: 59%   Direction: 310°NW
Pressure: 29.93"   Gusts: 25mph
Location:  39.09°N, 75.88°W
Report Text: KDOV 280558Z AUTO 31016G22KT 10SM CLR M05/M12 A2993 RMK AO2 SLP139 T10521122 11006 21052 52024 VISNO RWY19 CHINO RWY19 $
Loading
Personal Weather Stations






























Interactive Weather Map New forecast layout! Learn more

10-Day Weather Forecast

Advertisements
Track Severe Weather on mobile